Time;durP1;ratioP1;P1;durP2;ratioP2;P2;SDS_P1;SDS_P2;PMS_P1;PMS_P2;Temp;Humidity;BMP_temperature;BMP_pressure;BME280_temperature;BME280_humidity;BME280_pressure;Samples;Min_cycle;Max_cycle;Signal;HPM_P1;HPM_P2
2021/12/30 00:00:39;;;;;;;;;0.00;0.00;;;;;15.30;82.79;100983.88;5059076;28;46429;-73
2021/12/30 00:03:05;;;;;;;;;2.00;1.00;;;;;15.35;82.80;100995.34;5059318;28;45273;-73
2021/12/30 00:05:31;;;;;;;;;2.00;0.00;;;;;15.34;82.66;100997.13;5041370;28;45266;-73
2021/12/30 00:07:57;;;;;;;;;0.33;0.33;;;;;15.34;82.54;101010.38;5059969;28;45506;-74
2021/12/30 00:10:22;;;;;;;;;1.33;1.33;;;;;15.30;82.68;101010.44;5059159;28;46284;-73
2021/12/30 00:12:51;;;;;;;;;0.00;0.00;;;;;15.33;82.76;101010.41;5059383;28;45250;-74
2021/12/30 00:15:18;;;;;;;;;1.00;1.00;;;;;15.32;82.49;101001.56;5059604;28;45310;-74
2021/12/30 00:17:43;;;;;;;;;0.00;0.00;;;;;15.31;82.58;101010.41;5059312;28;45410;-73
2021/12/30 00:20:09;;;;;;;;;1.00;1.00;;;;;15.28;82.94;101006.91;5059411;28;45365;-73
2021/12/30 00:22:37;;;;;;;;;1.00;1.00;;;;;15.29;82.80;101009.56;5059368;28;45165;-73
2021/12/30 00:25:05;;;;;;;;;1.00;1.00;;;;;15.34;82.58;101015.69;5059136;28;45229;-73
2021/12/30 00:27:30;;;;;;;;;0.00;0.00;;;;;15.16;82.33;100988.41;5059219;28;45295;-74
2021/12/30 00:29:56;;;;;;;;;0.67;0.33;;;;;15.29;82.56;100998.06;5059077;28;46551;-75
2021/12/30 00:32:21;;;;;;;;;0.00;0.00;;;;;15.24;82.56;100989.25;5059021;28;45291;-73
2021/12/30 00:34:47;;;;;;;;;0.33;0.00;;;;;15.27;82.90;100998.06;5059311;28;45651;-74
2021/12/30 00:37:13;;;;;;;;;0.00;0.00;;;;;15.34;83.15;101006.84;5059392;28;45310;-74
2021/12/30 00:39:38;;;;;;;;;0.00;0.00;;;;;15.34;82.90;101006.84;5059134;28;45307;-73
2021/12/30 00:42:04;;;;;;;;;1.00;1.00;;;;;15.29;82.79;100995.41;5058825;28;45374;-73
2021/12/30 00:44:29;;;;;;;;;0.67;0.67;;;;;15.36;82.96;101021.03;5059313;28;45223;-73
2021/12/30 00:46:57;;;;;;;;;1.00;0.00;;;;;15.30;82.51;101005.13;5040954;28;45495;-72
2021/12/30 00:49:22;;;;;;;;;1.00;1.00;;;;;15.34;82.45;101013.03;5058609;28;45577;-73
2021/12/30 00:51:48;;;;;;;;;0.00;0.00;;;;;15.33;82.60;101013.06;5058655;28;45402;-73
2021/12/30 00:54:13;;;;;;;;;1.00;1.00;;;;;15.37;82.65;101028.09;5058946;28;45293;-73
2021/12/30 00:56:39;;;;;;;;;3.00;2.00;;;;;15.35;82.65;101029.84;5058847;28;45294;-73
2021/12/30 00:59:04;;;;;;;;;1.00;1.00;;;;;15.31;82.48;101023.69;5059020;28;46444;-73
2021/12/30 01:01:29;;;;;;;;;0.00;0.00;;;;;15.26;82.89;101020.22;5058863;28;45479;-73
2021/12/30 01:03:55;;;;;;;;;0.00;0.00;;;;;15.36;82.63;101037.81;5058703;28;45411;-73
2021/12/30 01:06:20;;;;;;;;;0.33;0.33;;;;;15.30;82.62;101029.91;5058934;28;45304;-73
2021/12/30 01:08:46;;;;;;;;;0.00;0.00;;;;;15.36;82.49;101034.28;5058664;28;45887;-73
2021/12/30 01:11:12;;;;;;;;;0.00;0.00;;;;;15.36;83.06;101039.59;5057470;28;45380;-73
2021/12/30 01:13:42;;;;;;;;;1.67;1.00;;;;;15.38;82.92;101048.44;5057676;28;45448;-73
2021/12/30 01:16:22;;;;;;;;;0.00;0.00;;;;;15.24;83.23;101032.59;5058439;28;45373;-74
2021/12/30 01:19:22;;;;;;;;;0.00;0.00;;;;;15.29;82.99;101049.38;5058120;28;46133;-73
2021/12/30 01:21:49;;;;;;;;;0.00;0.00;;;;;15.35;82.75;101059.91;5058136;28;45227;-74
2021/12/30 01:24:15;;;;;;;;;0.67;0.67;;;;;15.27;83.29;101056.47;5058430;28;45340;-74
2021/12/30 01:26:40;;;;;;;;;1.00;1.00;;;;;15.32;83.32;101070.56;5058178;28;45310;-73
2021/12/30 01:29:06;;;;;;;;;0.67;0.67;;;;;15.28;83.03;101054.69;5058106;28;47130;-73
2021/12/30 01:31:31;;;;;;;;;2.00;1.00;;;;;15.26;83.21;101060.03;5058235;28;45362;-73
2021/12/30 01:33:57;;;;;;;;;1.00;1.00;;;;;15.32;83.77;101072.34;5058095;28;45307;-73
2021/12/30 01:36:25;;;;;;;;;1.00;1.00;;;;;15.27;83.31;101067.09;5058372;28;45379;-73
2021/12/30 01:38:51;;;;;;;;;1.00;1.00;;;;;15.31;84.04;101081.22;5057906;28;47231;-74
2021/12/30 01:41:17;;;;;;;;;1.00;1.00;;;;;15.24;83.77;101079.47;5057882;28;45552;-73
2021/12/30 01:43:43;;;;;;;;;0.67;0.67;;;;;15.31;83.82;101099.78;5058076;28;45457;-73
2021/12/30 01:46:09;;;;;;;;;1.00;1.00;;;;;15.28;84.12;101098.03;5058183;28;45605;-72
2021/12/30 01:48:35;;;;;;;;;1.67;1.00;;;;;15.21;84.15;101076.84;5057700;28;46524;-73
2021/12/30 01:51:01;;;;;;;;;1.00;1.00;;;;;15.24;84.59;101088.31;5057820;28;45308;-73
2021/12/30 01:53:27;;;;;;;;;0.33;0.33;;;;;15.22;84.55;101087.44;5057619;28;45464;-73
2021/12/30 01:55:52;;;;;;;;;1.00;1.00;;;;;15.26;85.07;101099.84;5040072;28;45340;-73
2021/12/30 01:58:19;;;;;;;;;0.67;0.67;;;;;15.25;85.20;101099.81;5057607;28;47889;-73
2021/12/30 02:00:47;;;;;;;;;1.00;1.00;;;;;15.16;85.10;101090.13;5058076;28;45331;-73
2021/12/30 02:03:13;;;;;;;;;1.67;1.67;;;;;15.22;85.03;101114.00;5057814;28;45264;-73
2021/12/30 02:05:39;;;;;;;;;2.00;1.00;;;;;15.21;85.55;101104.28;5057816;28;45223;-73
2021/12/30 02:08:13;;;;;;;;;1.00;1.00;;;;;15.13;85.65;101092.81;5057462;28;47013;-73
2021/12/30 02:10:40;;;;;;;;;2.67;2.00;;;;;15.18;86.08;101103.41;5039680;28;45979;-73
2021/12/30 02:13:07;;;;;;;;;1.00;0.00;;;;;15.08;85.54;101090.19;5057599;28;45314;-73
2021/12/30 02:15:32;;;;;;;;;0.00;0.00;;;;;15.06;86.04;101091.97;5057381;28;45512;-72
2021/12/30 02:17:59;;;;;;;;;1.00;1.00;;;;;15.08;85.72;101094.63;5039408;28;47440;-73
2021/12/30 02:20:49;;;;;;;;;0.00;0.00;;;;;15.10;85.99;101109.66;5057603;28;45260;-73
2021/12/30 02:23:27;;;;;;;;;0.00;0.00;;;;;15.14;86.23;101118.47;5057177;28;45443;-73
2021/12/30 02:25:56;;;;;;;;;2.00;2.00;;;;;15.09;86.14;101109.66;5057568;28;45370;-73
2021/12/30 02:28:24;;;;;;;;;1.00;1.00;;;;;15.13;86.20;101121.13;5056988;28;46127;-72
2021/12/30 02:30:52;;;;;;;;;2.00;1.00;;;;;15.15;85.70;101120.22;5057267;28;45397;-73
2021/12/30 02:33:17;;;;;;;;;1.33;1.33;;;;;15.19;85.59;101119.34;5057359;28;45319;-73
2021/12/30 02:35:43;;;;;;;;;1.00;1.00;;;;;15.18;85.52;101122.00;5057191;28;45245;-73
2021/12/30 02:38:09;;;;;;;;;0.00;0.00;;;;;15.15;85.58;101124.66;5057015;28;46133;-73
2021/12/30 02:40:41;;;;;;;;;1.00;1.00;;;;;15.01;85.17;101100.84;5057123;28;45357;-73
2021/12/30 02:43:12;;;;;;;;;1.00;1.00;;;;;15.15;85.52;101124.66;5057299;28;45310;-73
2021/12/30 02:45:37;;;;;;;;;0.33;0.33;;;;;15.09;85.27;101125.56;5057361;28;45557;-73
2021/12/30 02:48:03;;;;;;;;;0.00;0.00;;;;;15.11;85.16;101123.78;5056659;28;46205;-73
2021/12/30 02:50:29;;;;;;;;;0.00;0.00;;;;;15.25;84.90;101139.63;5057355;28;45247;-74
2021/12/30 02:52:55;;;;;;;;;0.00;0.00;;;;;15.17;84.47;101136.13;5057209;28;45447;-74
2021/12/30 02:55:20;;;;;;;;;0.00;0.00;;;;;15.24;85.23;101152.03;5057342;28;45351;-74
2021/12/30 02:57:45;;;;;;;;;0.00;0.00;;;;;15.10;84.46;101136.19;5056972;28;46417;-74
2021/12/30 03:00:11;;;;;;;;;0.00;0.00;;;;;15.17;84.21;101149.41;5056882;28;45479;-74
2021/12/30 03:02:38;;;;;;;;;0.33;0.00;;;;;15.19;84.21;101148.53;5057134;28;45407;-73
2021/12/30 03:05:06;;;;;;;;;1.00;1.00;;;;;15.23;84.68;101152.03;5056882;28;45440;-75
2021/12/30 03:07:32;;;;;;;;;2.00;0.00;;;;;15.21;84.37;101152.03;5056405;28;45801;-73
2021/12/30 03:09:57;;;;;;;;;2.00;0.00;;;;;15.17;84.41;101152.97;5056924;28;45221;-74
2021/12/30 03:12:24;;;;;;;;;0.00;0.00;;;;;15.14;84.45;101136.16;5056953;28;45160;-73
2021/12/30 03:14:49;;;;;;;;;1.00;1.00;;;;;15.18;83.95;101145.88;5057394;28;45227;-74
2021/12/30 03:17:14;;;;;;;;;2.00;1.00;;;;;15.13;84.08;101129.09;5056475;28;45379;-74
2021/12/30 03:19:40;;;;;;;;;0.00;0.00;;;;;15.22;84.18;101142.31;5056898;28;45415;-73
2021/12/30 03:22:06;;;;;;;;;0.00;0.00;;;;;15.21;84.27;101143.19;5057277;28;45386;-73
2021/12/30 03:24:31;;;;;;;;;0.00;0.00;;;;;15.22;83.85;101145.84;5057024;28;45406;-74
2021/12/30 03:26:57;;;;;;;;;1.00;0.00;;;;;15.23;83.77;101144.06;5056414;28;46077;-73
2021/12/30 03:29:22;;;;;;;;;0.33;0.00;;;;;15.28;83.92;101155.56;5056611;28;45347;-74
2021/12/30 03:31:48;;;;;;;;;0.00;0.00;;;;;15.24;83.56;101148.47;5056810;28;45512;-73
2021/12/30 03:34:13;;;;;;;;;1.33;0.00;;;;;15.26;83.31;101158.22;5056696;28;45429;-74
2021/12/30 03:36:39;;;;;;;;;0.00;0.00;;;;;15.32;83.04;101163.47;5058344;28;46560;-74
2021/12/30 03:39:05;;;;;;;;;0.00;0.00;;;;;15.29;82.98;101154.66;5060039;28;45399;-73
2021/12/30 03:41:31;;;;;;;;;0.00;0.00;;;;;15.22;83.35;101140.53;5060060;28;45236;-74
2021/12/30 03:44:00;;;;;;;;;1.00;0.00;;;;;15.35;82.92;101166.09;5060029;28;45147;-73
2021/12/30 03:46:26;;;;;;;;;0.00;0.00;;;;;15.26;82.65;101144.03;5060068;28;46927;-73
2021/12/30 03:48:52;;;;;;;;;0.67;0.67;;;;;15.36;82.63;101165.25;5059273;28;45290;-73
2021/12/30 03:51:24;;;;;;;;;1.00;1.00;;;;;15.31;83.03;101145.78;5059925;28;45317;-74
2021/12/30 03:53:55;;;;;;;;;0.00;0.00;;;;;15.32;82.49;101149.31;5059896;28;45496;-73
2021/12/30 03:56:23;;;;;;;;;1.00;0.00;;;;;15.36;82.65;101151.09;5059338;28;45600;-74
2021/12/30 03:58:49;;;;;;;;;1.00;0.00;;;;;15.34;82.47;101142.22;5059459;28;45364;-74
2021/12/30 04:01:18;;;;;;;;;0.00;0.00;;;;;15.33;82.23;101140.47;5059701;28;45463;-73
2021/12/30 04:03:44;;;;;;;;;0.00;0.00;;;;;15.37;82.55;101152.84;5059452;28;45368;-73
2021/12/30 04:06:09;;;;;;;;;2.00;0.00;;;;;15.32;82.50;101144.91;5059102;28;45358;-74
2021/12/30 04:08:35;;;;;;;;;0.00;0.00;;;;;15.29;82.28;101131.66;5059737;28;45314;-73
2021/12/30 04:11:00;;;;;;;;;0.00;0.00;;;;;15.28;82.28;101119.28;5059599;28;45407;-73
2021/12/30 04:13:28;;;;;;;;;1.00;1.00;;;;;15.37;81.82;101150.19;5059704;28;45145;-73
2021/12/30 04:15:53;;;;;;;;;0.00;0.00;;;;;15.31;82.14;101139.59;5059213;28;46306;-73
2021/12/30 04:18:19;;;;;;;;;0.00;0.00;;;;;15.28;82.28;101135.19;5059171;28;45583;-74
2021/12/30 04:20:46;;;;;;;;;0.00;0.00;;;;;15.36;81.97;101153.75;5059579;28;45263;-74
2021/12/30 04:23:12;;;;;;;;;0.00;0.00;;;;;15.34;81.91;101156.38;5059652;28;45517;-73
2021/12/30 04:25:38;;;;;;;;;0.00;0.00;;;;;15.32;81.98;101144.03;5059055;28;47117;-73
2021/12/30 04:28:03;;;;;;;;;1.00;1.00;;;;;15.28;82.06;101132.56;5058925;28;45556;-72
2021/12/30 04:30:29;;;;;;;;;0.00;0.00;;;;;15.37;81.76;101147.53;5059454;28;45314;-74
2021/12/30 04:32:55;;;;;;;;;0.00;0.00;;;;;15.40;81.62;101151.06;5059318;28;45278;-74
2021/12/30 04:35:20;;;;;;;;;0.00;0.00;;;;;15.43;81.81;101146.59;5059109;28;47168;-73
2021/12/30 04:37:46;;;;;;;;;1.00;1.00;;;;;15.42;81.27;101131.56;5058766;28;45215;-73
2021/12/30 04:40:13;;;;;;;;;1.00;0.67;;;;;15.42;81.47;101131.56;5059209;28;45349;-74
2021/12/30 04:42:39;;;;;;;;;0.00;0.00;;;;;15.37;81.43;101127.19;5059423;28;45346;-73
2021/12/30 04:45:06;;;;;;;;;0.00;0.00;;;;;15.41;81.28;101138.66;5058688;28;46667;-74
2021/12/30 04:47:31;;;;;;;;;1.00;0.00;;;;;15.44;81.58;101143.06;5057440;28;45290;-73
2021/12/30 04:49:58;;;;;;;;;0.00;0.00;;;;;15.38;81.08;101128.06;5040893;28;45466;-73
2021/12/30 04:52:26;;;;;;;;;0.00;0.00;;;;;15.34;81.16;101128.97;5059264;28;45331;-73
2021/12/30 04:54:51;;;;;;;;;0.00;0.00;;;;;15.42;80.96;101147.50;5058661;28;46537;-73
2021/12/30 04:57:17;;;;;;;;;2.00;0.00;;;;;15.43;80.81;101151.91;5058748;28;45232;-73
2021/12/30 04:59:43;;;;;;;;;4.00;0.00;;;;;15.31;80.92;101137.84;5058923;28;45314;-73
2021/12/30 05:02:08;;;;;;;;;0.00;0.00;;;;;15.36;81.10;101156.41;5058948;28;45511;-73
2021/12/30 05:04:34;;;;;;;;;0.00;0.00;;;;;15.20;81.36;101146.75;5058184;28;47390;-74
2021/12/30 05:06:59;;;;;;;;;0.00;0.00;;;;;15.18;81.47;101153.84;5040256;28;45418;-73
2021/12/30 05:09:25;;;;;;;;;0.00;0.00;;;;;15.11;81.83;101166.25;5058817;28;45240;-73
2021/12/30 05:11:50;;;;;;;;;1.00;0.00;;;;;14.97;82.00;101163.63;5058607;28;45435;-73
2021/12/30 05:14:16;;;;;;;;;0.67;0.00;;;;;15.07;81.68;101180.41;5058436;28;47263;-73
2021/12/30 05:16:43;;;;;;;;;0.00;0.00;;;;;14.97;81.64;101171.59;5058350;28;45460;-73
2021/12/30 05:19:09;;;;;;;;;0.00;0.00;;;;;14.91;81.93;101160.16;5058462;28;45464;-73
2021/12/30 05:21:34;;;;;;;;;0.00;0.00;;;;;15.06;81.69;101190.13;5058779;28;45304;-72
2021/12/30 05:24:00;;;;;;;;;1.00;0.00;;;;;15.06;81.49;101190.13;5058245;28;46071;-73
2021/12/30 05:26:28;;;;;;;;;1.33;0.33;;;;;14.95;81.60;101161.88;5058197;28;45388;-73
2021/12/30 05:28:58;;;;;;;;;0.67;0.67;;;;;15.00;81.75;101166.28;5058299;28;45161;-73
2021/12/30 05:31:25;;;;;;;;;0.67;0.33;;;;;14.92;82.21;101162.78;5058423;28;45461;-72
2021/12/30 05:33:51;;;;;;;;;1.00;0.00;;;;;14.88;81.91;101174.28;5057942;28;46487;-73
2021/12/30 05:36:17;;;;;;;;;1.00;1.00;;;;;14.88;82.74;101184.00;5057914;28;45219;-73
2021/12/30 05:38:43;;;;;;;;;0.00;0.00;;;;;14.89;82.34;101193.72;5058410;28;45268;-73
2021/12/30 05:41:08;;;;;;;;;0.00;0.00;;;;;14.79;82.71;101180.50;5058297;28;45311;-73
2021/12/30 05:43:33;;;;;;;;;0.67;0.67;;;;;14.79;83.10;101208.78;5058261;28;46331;-73
2021/12/30 05:45:59;;;;;;;;;0.67;0.00;;;;;14.77;82.70;101203.50;5058047;28;45223;-73
2021/12/30 05:48:25;;;;;;;;;0.00;0.00;;;;;14.69;83.26;101210.56;5057987;28;45372;-73
2021/12/30 05:50:50;;;;;;;;;1.33;1.00;;;;;14.71;83.33;101226.50;5058287;28;45366;-74
2021/12/30 05:53:16;;;;;;;;;1.33;0.67;;;;;14.68;83.19;101229.16;5057930;28;46707;-74
2021/12/30 05:55:42;;;;;;;;;2.67;1.00;;;;;14.60;83.56;101226.50;5057824;28;45354;-74
2021/12/30 05:58:07;;;;;;;;;1.67;0.67;;;;;14.58;83.50;101222.97;5057743;28;45337;-74
2021/12/30 06:00:33;;;;;;;;;0.00;0.00;;;;;14.56;83.69;101227.41;5057971;28;45365;-74
2021/12/30 06:02:59;;;;;;;;;0.00;0.00;;;;;14.45;83.71;101218.59;5057564;28;46521;-73
2021/12/30 06:05:25;;;;;;;;;2.00;1.00;;;;;14.52;83.82;101236.25;5057361;28;45295;-74
2021/12/30 06:07:50;;;;;;;;;1.00;1.00;;;;;14.45;84.17;101229.19;5057598;28;45302;-74
2021/12/30 06:10:16;;;;;;;;;1.00;1.00;;;;;14.39;84.17;101227.38;5056496;28;45156;-74
2021/12/30 06:12:46;;;;;;;;;2.50;1.25;;;;;14.30;84.33;101219.44;5057409;28;46844;-74
2021/12/30 06:15:13;;;;;;;;;1.33;1.33;;;;;14.41;84.47;101240.63;5057573;28;45271;-74
2021/12/30 06:17:39;;;;;;;;;0.33;0.00;;;;;14.36;83.97;101239.75;5057553;28;45368;-74
2021/12/30 06:20:08;;;;;;;;;0.75;0.75;;;;;14.35;84.45;101245.94;5057488;28;45359;-74
2021/12/30 06:22:33;;;;;;;;;2.67;1.00;;;;;14.29;84.06;101230.91;5057121;28;46368;-72
2021/12/30 06:24:59;;;;;;;;;0.25;0.25;;;;;14.30;84.17;101253.88;5057295;28;45480;-72
2021/12/30 06:27:24;;;;;;;;;2.00;1.50;;;;;14.15;84.53;101224.75;5057543;28;45276;-73
2021/12/30 06:29:50;;;;;;;;;1.00;1.00;;;;;14.24;84.35;101249.47;5057626;28;45176;-73
2021/12/30 06:32:15;;;;;;;;;2.00;1.00;;;;;14.14;84.11;101229.13;5056980;28;45401;-73
2021/12/30 06:34:41;;;;;;;;;0.00;0.00;;;;;14.15;84.72;101238.88;5057256;28;45291;-73
2021/12/30 06:37:06;;;;;;;;;4.33;1.00;;;;;14.12;84.49;101243.25;5057486;28;45644;-73
2021/12/30 06:39:32;;;;;;;;;0.50;0.50;;;;;14.10;84.63;101245.03;5057609;28;45429;-72
2021/12/30 06:41:57;;;;;;;;;4.00;2.50;;;;;13.99;84.49;101231.78;5056746;28;46330;-73
2021/12/30 06:44:23;;;;;;;;;2.50;1.50;;;;;13.89;85.05;101224.72;5056831;28;45371;-73
2021/12/30 06:46:56;;;;;;;;;2.75;2.75;;;;;13.95;85.52;101246.75;5057173;28;45318;-72
2021/12/30 06:49:21;;;;;;;;;2.00;2.00;;;;;14.01;85.24;101261.81;5056822;28;45257;-73
2021/12/30 06:51:47;;;;;;;;;1.50;1.25;;;;;13.97;85.80;101260.03;5056905;28;45394;-73
2021/12/30 06:54:12;;;;;;;;;3.25;0.00;;;;;13.97;85.54;101268.88;5038588;28;46028;-73
2021/12/30 06:56:39;;;;;;;;;4.00;1.00;;;;;13.89;85.50;101251.19;5056586;28;45244;-73
2021/12/30 06:59:05;;;;;;;;;1.75;0.75;;;;;13.86;85.89;101254.69;5057027;28;45351;-73
2021/12/30 07:01:31;;;;;;;;;2.25;2.25;;;;;13.88;85.67;101257.38;5056849;28;47284;-73
2021/12/30 07:03:56;;;;;;;;;2.75;2.00;;;;;13.88;85.58;101266.19;5056892;28;45309;-73
2021/12/30 07:06:22;;;;;;;;;3.00;2.75;;;;;13.83;85.68;101264.41;5056923;28;45551;-73
2021/12/30 07:08:47;;;;;;;;;1.25;1.25;;;;;13.76;85.28;101252.03;5057445;28;45228;-74
2021/12/30 07:11:13;;;;;;;;;2.00;2.00;;;;;13.86;85.06;101283.81;5058255;28;45563;-74
2021/12/30 07:13:38;;;;;;;;;2.00;2.00;;;;;13.71;85.15;101256.44;5042079;28;45348;-74
2021/12/30 07:16:04;;;;;;;;;2.75;2.75;;;;;13.74;84.70;101261.72;5060309;28;45213;-74
2021/12/30 07:18:29;;;;;;;;;3.50;2.50;;;;;13.81;84.47;101287.38;5060758;28;45272;-75
2021/12/30 07:20:55;;;;;;;;;4.00;0.50;;;;;13.76;84.92;101287.34;5060121;28;46213;-74
2021/12/30 07:23:20;;;;;;;;;4.25;4.00;;;;;13.82;84.66;101289.13;5060201;28;45243;-73
2021/12/30 07:25:45;;;;;;;;;3.00;2.25;;;;;13.69;84.77;101274.97;5059956;28;45307;-73
2021/12/30 07:28:11;;;;;;;;;4.50;3.75;;;;;13.81;84.43;101293.53;5060238;28;45513;-73
2021/12/30 07:30:36;;;;;;;;;2.00;2.00;;;;;13.74;84.21;101273.22;5059995;28;47152;-73
2021/12/30 07:33:06;;;;;;;;;3.00;2.00;;;;;13.84;84.24;101296.19;5059814;28;45275;-73
2021/12/30 07:35:33;;;;;;;;;5.50;2.75;;;;;13.75;83.92;101284.69;5060094;28;45252;-74
2021/12/30 07:37:58;;;;;;;;;2.25;2.25;;;;;13.84;83.55;101290.00;5059681;28;45157;-73
2021/12/30 07:40:24;;;;;;;;;0.50;0.00;;;;;14.01;83.32;101305.94;5059468;28;46722;-72
2021/12/30 07:42:49;;;;;;;;;2.75;2.00;;;;;14.01;83.07;101316.53;5059977;28;45274;-73
2021/12/30 07:45:15;;;;;;;;;7.50;4.00;;;;;14.01;82.92;101305.94;5059871;28;45345;-73
2021/12/30 07:47:41;;;;;;;;;2.50;1.00;;;;;13.92;82.67;101294.44;5059787;28;45199;-73
2021/12/30 07:50:07;;;;;;;;;5.50;2.50;;;;;13.99;82.31;101298.00;5059500;28;46496;-75
2021/12/30 07:52:34;;;;;;;;;4.50;2.75;;;;;14.04;82.30;101304.19;5059416;28;45295;-73
2021/12/30 07:55:00;;;;;;;;;7.50;4.00;;;;;14.13;81.90;101321.88;5059810;28;45308;-73
2021/12/30 07:57:25;;;;;;;;;8.50;4.25;;;;;14.18;81.99;101322.78;5059932;28;45236;-73
2021/12/30 07:59:52;;;;;;;;;7.50;3.00;;;;;14.21;81.64;101320.13;5059442;28;46660;-74
2021/12/30 08:02:19;;;;;;;;;8.25;3.75;;;;;14.11;81.67;101303.31;5059514;28;45251;-74
2021/12/30 08:04:45;;;;;;;;;3.75;2.00;;;;;14.20;80.90;101331.59;5059211;28;45374;-74
2021/12/30 08:07:10;;;;;;;;;6.00;2.50;;;;;14.26;81.20;101342.22;5059372;28;45212;-73
2021/12/30 08:09:36;;;;;;;;;9.25;2.75;;;;;14.19;80.81;101332.50;5059194;28;45659;-73
2021/12/30 08:12:01;;;;;;;;;3.25;2.00;;;;;14.26;81.11;101358.13;5041052;28;45458;-73
2021/12/30 08:14:27;;;;;;;;;9.25;3.00;;;;;14.33;80.62;101361.66;5059311;28;45315;-74
2021/12/30 08:16:53;;;;;;;;;3.75;3.75;;;;;14.27;80.48;101357.25;5059250;28;45493;-74
2021/12/30 08:19:18;;;;;;;;;4.75;4.00;;;;;14.33;80.58;101372.25;5059166;28;45865;-74
2021/12/30 08:21:44;;;;;;;;;3.25;3.00;;;;;14.31;80.60;101371.38;5057767;28;45880;-74
2021/12/30 08:24:10;;;;;;;;;3.00;3.00;;;;;14.35;80.40;101373.16;5041162;28;45559;-74
2021/12/30 08:26:35;;;;;;;;;5.00;3.50;;;;;14.37;79.66;101374.06;5059281;28;45272;-74
2021/12/30 08:29:01;;;;;;;;;3.50;3.00;;;;;14.29;80.12;101355.47;5058738;28;46778;-73
2021/12/30 08:31:26;;;;;;;;;6.00;4.25;;;;;14.18;80.14;101347.50;5059034;28;45216;-73
2021/12/30 08:33:52;;;;;;;;;4.00;4.00;;;;;14.32;79.73;101381.97;5059187;28;45349;-74
2021/12/30 08:36:18;;;;;;;;;6.25;4.25;;;;;14.34;79.39;101382.88;5059273;28;45282;-74
2021/12/30 08:38:43;;;;;;;;;6.00;1.75;;;;;14.36;79.59;101390.84;5058667;28;46341;-73
2021/12/30 08:41:09;;;;;;;;;3.00;2.00;;;;;14.38;79.82;101402.31;5058774;28;45270;-74
2021/12/30 08:43:34;;;;;;;;;2.75;2.75;;;;;14.45;80.02;101409.44;5059145;28;45210;-74
2021/12/30 08:45:59;;;;;;;;;4.00;3.00;;;;;14.35;79.25;101392.59;5058758;28;45305;-73
2021/12/30 08:48:25;;;;;;;;;3.25;2.25;;;;;14.41;79.23;101400.56;5058231;28;46125;-73
2021/12/30 08:50:51;;;;;;;;;3.75;3.00;;;;;14.43;79.40;101401.47;5058749;28;45346;-74
2021/12/30 08:53:16;;;;;;;;;2.00;2.00;;;;;14.41;79.07;101405.84;5058460;28;45477;-73
2021/12/30 08:55:42;;;;;;;;;2.75;2.75;;;;;14.44;79.20;101416.47;5058690;28;45413;-73
2021/12/30 08:58:07;;;;;;;;;5.75;3.50;;;;;14.41;78.89;101397.91;5058598;28;45353;-73
2021/12/30 09:00:41;;;;;;;;;3.00;3.00;;;;;14.41;79.29;101394.38;5058743;28;45267;-73
2021/12/30 09:03:06;;;;;;;;;4.25;3.00;;;;;14.49;79.16;101404.13;5058732;28;45364;-73
2021/12/30 09:05:33;;;;;;;;;7.00;4.25;;;;;14.48;78.97;101405.03;5058340;28;45418;-73
2021/12/30 09:07:59;;;;;;;;;4.25;2.75;;;;;14.52;78.85;101411.25;5058174;28;46488;-74
2021/12/30 09:10:25;;;;;;;;;5.25;3.50;;;;;14.52;78.94;101406.81;5058189;28;45325;-73
2021/12/30 09:12:53;;;;;;;;;3.75;3.25;;;;;14.57;78.75;101421.84;5058339;28;45387;-73
2021/12/30 09:15:22;;;;;;;;;5.25;3.75;;;;;14.49;78.87;101404.13;5058367;28;45176;-74
2021/12/30 09:17:49;;;;;;;;;3.50;3.50;;;;;14.60;78.59;101422.72;5057893;28;46240;-74
2021/12/30 09:20:15;;;;;;;;;3.00;3.00;;;;;14.63;78.80;101430.69;5058152;28;45379;-74
2021/12/30 09:22:41;;;;;;;;;1.00;0.00;;;;;14.63;78.50;101429.81;5058168;28;45334;-73
2021/12/30 09:25:09;;;;;;;;;4.50;3.50;;;;;14.63;78.45;101427.16;5058431;28;45448;-74
2021/12/30 09:27:36;;;;;;;;;4.00;2.50;;;;;14.56;78.26;101415.66;5057850;28;46810;-74
2021/12/30 09:30:07;;;;;;;;;4.50;4.50;;;;;14.61;78.62;101415.66;5057620;28;45492;-74
2021/12/30 09:32:32;;;;;;;;;4.75;3.00;;;;;14.72;78.14;101440.44;5057928;28;45203;-73
2021/12/30 09:34:58;;;;;;;;;4.00;2.33;;;;;14.72;78.25;101428.06;5057521;28;45218;-74
2021/12/30 09:37:23;;;;;;;;;4.00;4.00;;;;;14.76;77.94;101421.88;5057717;28;45449;-74
2021/12/30 09:39:49;;;;;;;;;3.00;2.00;;;;;14.79;78.09;101426.28;5057698;28;45215;-74
2021/12/30 09:42:15;;;;;;;;;4.00;3.00;;;;;14.88;78.10;101439.56;5058035;28;45241;-74
2021/12/30 09:44:40;;;;;;;;;4.50;3.75;;;;;14.88;77.92;101433.38;5057761;28;45474;-73
2021/12/30 09:47:06;;;;;;;;;6.75;4.25;;;;;14.89;77.61;101427.16;5057726;28;46151;-73
2021/12/30 09:49:32;;;;;;;;;3.00;3.00;;;;;15.02;77.35;101440.47;5057394;28;45371;-74
2021/12/30 09:51:58;;;;;;;;;10.25;6.00;;;;;15.09;77.12;101438.69;5057828;28;45330;-74
2021/12/30 09:54:24;;;;;;;;;5.00;3.00;;;;;15.08;77.15;101448.44;5057823;28;45330;-73
2021/12/30 09:56:50;;;;;;;;;4.33;3.00;;;;;15.07;76.98;101437.78;5057372;28;46187;-73
2021/12/30 09:59:16;;;;;;;;;6.25;5.50;;;;;15.13;76.42;101440.47;5057527;28;45330;-73
2021/12/30 10:01:42;;;;;;;;;4.33;4.00;;;;;15.17;76.58;101444.91;5057576;28;45296;-74
2021/12/30 10:04:10;;;;;;;;;6.00;3.00;;;;;15.25;76.27;101445.75;5057303;28;45481;-74
2021/12/30 10:06:49;;;;;;;;;6.33;3.00;;;;;15.28;75.58;101447.53;5057403;28;45549;-73
2021/12/30 10:09:16;;;;;;;;;2.67;2.00;;;;;15.24;75.81;101445.75;5057418;28;45422;-74
2021/12/30 10:11:50;;;;;;;;;3.00;2.67;;;;;15.29;75.90;101444.00;5057168;28;45298;-73
2021/12/30 10:14:37;;;;;;;;;5.00;4.00;;;;;15.35;75.87;101449.28;5057480;28;45445;-73
2021/12/30 10:17:17;;;;;;;;;6.33;4.00;;;;;15.34;76.14;101439.56;5057146;28;46396;-73
2021/12/30 10:19:43;;;;;;;;;6.00;5.00;;;;;15.25;75.45;101411.25;5060666;28;45326;-73
2021/12/30 10:22:14;;;;;;;;;2.67;2.67;;;;;15.47;75.68;101448.41;5061399;28;45370;-74
2021/12/30 10:24:40;;;;;;;;;4.67;3.00;;;;;15.47;75.23;101451.94;5059500;28;45208;-74
2021/12/30 10:27:06;;;;;;;;;6.00;4.00;;;;;15.45;75.38;101442.19;5056920;28;46778;-74
2021/12/30 10:29:43;;;;;;;;;2.00;1.00;;;;;15.66;75.09;101451.06;5056971;28;45708;-74
2021/12/30 10:32:16;;;;;;;;;6.33;4.00;;;;;15.66;74.49;101448.41;5057001;28;45433;-74
2021/12/30 10:35:17;;;;;;;;;4.33;2.67;;;;;15.81;74.42;101457.22;5056863;28;45506;-74
2021/12/30 10:37:45;;;;;;;;;5.00;2.00;;;;;15.83;74.21;101452.81;4955492;28;46009;-74
2021/12/30 10:40:28;;;;;;;;;5.00;3.33;;;;;15.81;74.62;101450.13;4955635;28;45343;-74
2021/12/30 10:43:20;;;;;;;;;5.33;4.00;;;;;15.88;74.62;101458.97;4955713;28;45276;-74
2021/12/30 10:46:02;;;;;;;;;6.33;4.00;;;;;15.80;74.65;101461.63;4958155;28;45414;-72
2021/12/30 10:48:27;;;;;;;;;4.67;3.00;;;;;15.62;74.62;101451.94;4958853;28;46669;-74
2021/12/30 10:51:20;;;;;;;;;3.33;3.33;;;;;15.62;74.94;101441.31;4958672;28;45418;-74
2021/12/30 10:53:47;;;;;;;;;1.00;1.00;;;;;15.61;74.35;101442.19;4959465;28;45292;-74
2021/12/30 10:56:21;;;;;;;;;4.00;3.00;;;;;15.79;74.18;101459.00;4959573;28;45347;-73
2021/12/30 10:58:47;;;;;;;;;5.67;4.00;;;;;15.81;73.62;101442.16;4958960;28;46607;-74
2021/12/30 11:01:15;;;;;;;;;4.00;2.67;;;;;15.83;74.20;101442.19;4959091;28;45354;-74
2021/12/30 11:03:42;;;;;;;;;6.67;2.00;;;;;15.85;74.12;101432.41;4942990;28;45484;-74
2021/12/30 11:06:14;;;;;;;;;2.00;2.00;;;;;16.02;73.42;101445.66;4959135;28;45295;-73
2021/12/30 11:08:41;;;;;;;;;3.67;3.67;;;;;16.11;73.40;101435.88;4959047;28;46157;-74
2021/12/30 11:11:27;;;;;;;;;4.00;2.33;;;;;16.05;73.20;101437.66;4984663;28;45337;-74
2021/12/30 11:13:57;;;;;;;;;5.00;4.00;;;;;16.02;73.12;101417.31;5060147;28;45210;-74
2021/12/30 11:16:22;;;;;;;;;6.00;6.00;;;;;16.20;73.06;101448.25;5060119;28;45326;-74
2021/12/30 11:18:47;;;;;;;;;4.67;4.67;;;;;16.17;72.89;101443.78;5059687;28;46013;-74
2021/12/30 11:21:40;;;;;;;;;5.00;4.00;;;;;16.15;72.92;101448.25;5059992;28;45421;-75
2021/12/30 11:24:06;;;;;;;;;4.67;4.33;;;;;16.13;73.06;101439.41;5060172;28;45328;-74